Santo Pekoa International Airport
NVSS : now visible

Airfield :











YOU CAN JOIN US ON...

 
LOGIN :

Register | Disclaimer

   EN    FR    IT 

 









Legend :    VFR   Marginal VFR   IFR   Intensive IFR   Very Intensive IFR
Visi :
Ceiling :
>= 8 km
>= 3000ft
5 to 8 km
1000 to 3000 ft
1500m to 5 km
500 to 1000 ft
800 to 1500m
200 to 500 ft
< 800m
< 200 ft
Symbols :   Thunderstorms  Fog  Heavy snow  Heavy precipitations  Wind > 20 kt






- Airport Elevation : 184 ft
- IATA code : SON


NVSS - Santo Pekoa International

CURRENT METAR :
  • 310600Z 00000KT 9999 SCT020 BKN130 26/24 Q1012 RMK RERA SPECI CONDX CEASED

EXPIRED METARs :
  • 310500Z 12007KT 9999 SHRA FEW012 SCT018 OVC100 26/25 Q1012

TAF TAF NVSS
Valid from the 31 at 06:00 until the 01 at 06:00 UTC


310430Z 3106/0106 05005KT 9999 FEW012 SCT018 BKN040 INTER 3106/3112 8000 SHRA FEW010 BKN018 OVC100
NFFF FIR / Oceania



MET'MAP, your aeronautical weather chart ! - Copyright ORBIFLY December 2007 - Disclaimer

ORBIFLY MET'MAP TEAM :

Programming & Development : Alexandra Zaïnal
Concept & original design : Baudouin d'Aumeries
Assistance for programming : Marc-Olivier Méhu
Technical & hardware support : Manuel Goepfert

Contact : metmap@orbifly.com




SOURCES & CREDITS :

   NOAA       Earth
Advisory